createdAt,value
2024-05-09T00:01:23.733Z,99569.00
2024-05-09T00:03:54.892Z,99571.00
2024-05-09T00:06:25.989Z,99569.00
2024-05-09T00:08:56.994Z,99574.00
2024-05-09T00:11:28.096Z,99570.00
2024-05-09T00:13:59.194Z,99570.00
2024-05-09T00:16:30.282Z,99566.00
2024-05-09T00:19:01.529Z,99565.00
2024-05-09T00:21:32.641Z,99562.00
2024-05-09T00:24:03.765Z,99562.00
2024-05-09T00:26:34.890Z,99573.00
2024-05-09T00:29:05.968Z,99560.00
2024-05-09T00:31:37.080Z,99549.00
2024-05-09T00:34:08.353Z,99556.00
2024-05-09T00:36:39.519Z,99554.00
2024-05-09T00:39:10.559Z,99548.00
2024-05-09T00:41:41.655Z,99568.00
2024-05-09T00:44:12.883Z,99563.00
2024-05-09T00:46:44.465Z,99554.00
2024-05-09T00:49:15.658Z,99554.00
2024-05-09T00:51:46.809Z,99560.00
2024-05-09T00:54:19.914Z,99552.00
2024-05-09T00:56:52.361Z,99563.00
2024-05-09T00:59:25.069Z,99552.00
2024-05-09T01:01:57.840Z,99551.00
2024-05-09T01:04:28.988Z,99556.00
2024-05-09T01:07:00.046Z,99549.00
2024-05-09T01:09:31.095Z,99544.00
2024-05-09T01:12:02.407Z,99549.00
2024-05-09T01:14:37.360Z,99551.00
2024-05-09T01:17:08.698Z,99542.00
2024-05-09T01:19:40.090Z,99537.00
2024-05-09T01:22:11.172Z,99534.00
2024-05-09T01:24:42.196Z,99555.00
2024-05-09T01:27:13.258Z,99537.00
2024-05-09T01:29:44.312Z,99540.00
2024-05-09T01:32:15.402Z,99541.00
2024-05-09T01:34:46.667Z,99549.00
2024-05-09T01:37:17.718Z,99538.00
2024-05-09T01:39:48.765Z,99549.00
2024-05-09T01:42:19.861Z,99545.00
2024-05-09T01:44:50.869Z,99542.00
2024-05-09T01:47:22.145Z,99543.00
2024-05-09T01:49:54.458Z,99552.00
2024-05-09T01:52:25.562Z,99544.00
2024-05-09T01:54:56.575Z,99549.00
2024-05-09T01:57:27.651Z,99541.00
2024-05-09T01:59:58.677Z,99552.00
2024-05-09T02:02:29.765Z,99552.00
2024-05-09T02:05:00.958Z,99554.00
2024-05-09T02:07:32.064Z,99561.00
2024-05-09T02:10:08.527Z,99556.00
2024-05-09T02:12:44.705Z,99554.00
2024-05-09T02:18:02.362Z,99560.00
2024-05-09T02:20:36.831Z,99553.00
2024-05-09T02:23:09.427Z,99556.00
2024-05-09T02:25:42.042Z,99557.00
2024-05-09T02:28:13.146Z,99548.00
2024-05-09T02:30:44.222Z,99546.00
2024-05-09T02:33:15.467Z,99546.00
2024-05-09T02:35:46.585Z,99551.00
2024-05-09T02:38:17.775Z,99543.00
2024-05-09T02:40:48.838Z,99547.00
2024-05-09T02:43:19.866Z,99553.00
2024-05-09T02:45:50.962Z,99560.00
2024-05-09T02:48:22.287Z,99553.00
2024-05-09T02:50:53.534Z,99563.00
2024-05-09T02:53:24.702Z,99567.00
2024-05-09T02:55:55.918Z,99568.00
2024-05-09T02:58:27.092Z,99554.00
2024-05-09T03:00:58.135Z,99568.00
2024-05-09T03:03:29.297Z,99564.00
2024-05-09T03:06:02.531Z,99555.00
2024-05-09T03:08:33.629Z,99556.00
2024-05-09T03:11:05.076Z,99554.00
2024-05-09T03:13:36.171Z,99560.00
2024-05-09T03:16:07.376Z,99576.00
2024-05-09T03:18:39.209Z,99550.00
2024-05-09T03:21:10.741Z,99562.00
2024-05-09T03:23:43.364Z,99553.00
2024-05-09T03:26:18.644Z,99561.00
2024-05-09T03:28:49.768Z,99563.00
2024-05-09T03:31:20.807Z,99563.00
2024-05-09T03:33:52.179Z,99574.00
2024-05-09T03:36:23.362Z,99563.00
2024-05-09T03:38:54.488Z,99566.00
2024-05-09T03:41:25.515Z,99554.00
2024-05-09T03:43:56.669Z,99547.00
2024-05-09T03:46:27.740Z,99549.00
2024-05-09T03:48:58.802Z,99552.00
2024-05-09T03:51:29.846Z,99557.00
2024-05-09T03:54:01.037Z,99554.00
2024-05-09T03:56:32.196Z,99556.00
2024-05-09T03:59:03.533Z,99557.00
2024-05-09T04:01:34.686Z,99562.00
2024-05-09T04:04:05.869Z,99555.00
2024-05-09T04:06:36.939Z,99555.00
2024-05-09T04:09:08.046Z,99564.00
2024-05-09T04:11:42.329Z,99568.00
2024-05-09T04:14:13.421Z,99561.00
2024-05-09T04:16:44.618Z,99567.00
2024-05-09T04:19:15.785Z,99572.00
2024-05-09T04:21:47.004Z,99573.00
2024-05-09T04:24:18.009Z,99569.00
2024-05-09T04:26:49.091Z,99563.00
2024-05-09T04:29:20.155Z,99560.00
2024-05-09T04:31:51.272Z,99562.00
2024-05-09T04:34:22.686Z,99561.00
2024-05-09T04:36:53.868Z,99557.00
2024-05-09T04:39:24.897Z,99567.00
2024-05-09T04:41:56.260Z,99563.00
2024-05-09T04:44:27.408Z,99560.00
2024-05-09T04:46:58.801Z,99555.00
2024-05-09T04:49:29.977Z,99555.00
2024-05-09T04:52:01.153Z,99569.00
2024-05-09T04:54:36.276Z,99564.00
2024-05-09T04:57:07.862Z,99570.00
2024-05-09T04:59:39.935Z,99578.00
2024-05-09T05:02:11.080Z,99574.00
2024-05-09T05:04:42.424Z,99568.00
2024-05-09T05:07:13.660Z,99588.00
2024-05-09T05:09:44.711Z,99572.00
2024-05-09T05:12:34.914Z,99577.00
2024-05-09T05:15:06.536Z,99577.00
2024-05-09T05:17:40.050Z,99581.00
2024-05-09T05:20:15.223Z,99578.00
2024-05-09T05:22:49.198Z,99579.00
2024-05-09T05:25:20.204Z,99584.00
2024-05-09T05:27:51.876Z,99584.00
2024-05-09T05:30:28.796Z,99583.00
2024-05-09T05:33:10.979Z,99579.00
2024-05-09T05:35:42.720Z,99583.00
2024-05-09T05:38:14.060Z,99579.00
2024-05-09T05:40:45.382Z,99580.00
2024-05-09T05:43:18.284Z,99581.00
2024-05-09T05:45:49.570Z,99584.00
2024-05-09T05:48:20.946Z,99590.00
2024-05-09T05:50:52.207Z,99579.00
2024-05-09T05:53:23.364Z,99584.00
2024-05-09T05:55:54.523Z,99569.00
2024-05-09T05:58:25.555Z,99583.00
2024-05-09T06:00:56.800Z,99586.00
2024-05-09T06:03:29.532Z,99579.00
2024-05-09T06:06:04.165Z,99581.00
2024-05-09T06:08:35.380Z,99588.00
2024-05-09T06:11:06.607Z,99591.00
2024-05-09T06:13:42.758Z,99594.00
2024-05-09T06:16:13.867Z,99584.00
2024-05-09T06:18:47.033Z,99585.00
2024-05-09T06:21:18.550Z,99583.00
2024-05-09T06:23:50.070Z,99585.00
2024-05-09T06:26:21.141Z,99584.00
2024-05-09T06:28:52.386Z,99580.00
2024-05-09T06:31:24.572Z,99581.00
2024-05-09T06:33:55.799Z,99591.00
2024-05-09T06:36:26.931Z,99576.00
2024-05-09T06:38:57.950Z,99594.00
2024-05-09T06:41:29.077Z,99592.00
2024-05-09T06:44:00.271Z,99580.00
2024-05-09T06:46:31.372Z,99572.00
2024-05-09T06:49:08.155Z,99577.00
2024-05-09T06:51:40.085Z,99578.00
2024-05-09T06:54:11.212Z,99581.00
2024-05-09T06:56:42.302Z,99584.00
2024-05-09T06:59:13.505Z,99607.00
2024-05-09T07:01:44.740Z,99580.00
2024-05-09T07:04:15.963Z,99582.00
2024-05-09T07:06:47.067Z,99587.00
2024-05-09T07:09:18.092Z,99586.00
2024-05-09T07:11:49.218Z,99585.00
2024-05-09T07:14:20.372Z,99578.00
2024-05-09T07:16:51.599Z,99574.00
2024-05-09T07:19:22.933Z,99575.00
2024-05-09T07:21:54.047Z,99577.00
2024-05-09T07:24:25.162Z,99581.00
2024-05-09T07:26:56.616Z,99572.00
2024-05-09T07:29:27.691Z,99577.00
2024-05-09T07:31:58.923Z,99576.00
2024-05-09T07:34:30.098Z,99574.00
2024-05-09T07:37:02.162Z,99565.00
2024-05-09T07:39:33.212Z,99569.00
2024-05-09T07:42:04.915Z,99562.00
2024-05-09T07:44:35.970Z,99566.00
2024-05-09T07:48:14.550Z,99555.00
2024-05-09T07:51:48.003Z,99561.00
2024-05-09T07:53:35.273Z,99561.00
2024-05-09T07:55:41.365Z,99554.00
2024-05-09T07:58:12.509Z,99550.00
2024-05-09T08:00:43.838Z,99551.00
2024-05-09T08:03:15.049Z,99550.00
2024-05-09T08:05:46.208Z,99544.00
2024-05-09T08:08:17.390Z,99536.00
2024-05-09T08:10:48.783Z,99540.00
2024-05-09T08:13:20.001Z,99540.00
2024-05-09T08:15:52.611Z,99566.00
2024-05-09T08:18:23.966Z,99534.00
2024-05-09T08:20:55.092Z,99539.00
2024-05-09T08:23:26.106Z,99528.00
2024-05-09T08:25:57.131Z,99527.00
2024-05-09T08:28:28.220Z,99525.00
2024-05-09T08:31:00.044Z,99548.00
2024-05-09T08:33:33.023Z,99521.00
2024-05-09T08:36:04.454Z,99525.00
2024-05-09T08:38:35.451Z,99515.00
2024-05-09T08:41:07.730Z,99517.00
2024-05-09T08:43:41.566Z,99515.00
2024-05-09T08:46:14.428Z,99523.00
2024-05-09T08:48:48.336Z,99521.00
2024-05-09T08:51:20.242Z,99516.00
2024-05-09T08:53:51.303Z,99510.00
2024-05-09T08:56:27.864Z,99513.00
2024-05-09T08:59:01.918Z,99508.00
2024-05-09T09:01:36.155Z,99516.00
2024-05-09T09:04:10.761Z,99502.00
2024-05-09T09:06:44.212Z,99525.00
2024-05-09T09:09:15.756Z,99499.00
2024-05-09T09:11:46.862Z,99508.00
2024-05-09T09:14:17.907Z,99509.00
2024-05-09T09:16:48.995Z,99501.00
2024-05-09T09:19:20.242Z,99507.00
2024-05-09T09:21:51.466Z,99501.00
2024-05-09T09:24:22.508Z,99507.00
2024-05-09T09:26:53.555Z,99493.00
2024-05-09T09:29:25.769Z,99495.00
2024-05-09T09:32:01.558Z,99499.00
2024-05-09T09:34:33.377Z,99494.00
2024-05-09T09:37:09.853Z,99487.00
2024-05-09T09:39:42.151Z,99510.00
2024-05-09T09:42:16.766Z,99496.00
2024-05-09T09:44:58.125Z,99499.00
2024-05-09T09:47:39.926Z,99496.00
2024-05-09T09:50:16.880Z,99490.00
2024-05-09T09:52:52.888Z,99494.00
2024-05-09T09:55:24.998Z,99500.00
2024-05-09T09:57:56.612Z,99498.00
2024-05-09T10:00:32.983Z,99497.00
2024-05-09T10:03:05.458Z,99498.00
2024-05-09T10:05:37.541Z,99497.00
2024-05-09T10:08:10.720Z,99507.00
2024-05-09T10:10:50.605Z,99484.00
2024-05-09T10:13:34.319Z,99491.00
2024-05-09T10:16:10.904Z,99489.00
2024-05-09T10:18:42.360Z,99473.00
2024-05-09T10:21:20.529Z,99475.00
2024-05-09T10:24:02.724Z,99477.00
2024-05-09T10:26:35.494Z,99477.00
2024-05-09T10:29:17.447Z,99474.00
2024-05-09T10:31:48.641Z,99469.00
2024-05-09T10:34:22.354Z,99473.00
2024-05-09T10:36:55.123Z,99468.00
2024-05-09T10:39:26.649Z,99465.00
2024-05-09T10:41:57.662Z,99464.00
2024-05-09T10:44:29.609Z,99471.00
2024-05-09T10:47:00.685Z,99465.00
2024-05-09T10:49:32.098Z,99465.00
2024-05-09T10:52:04.519Z,99459.00
2024-05-09T10:54:37.120Z,99459.00
2024-05-09T10:57:08.258Z,99456.00
2024-05-09T10:59:39.818Z,99457.00
2024-05-09T11:02:11.618Z,99450.00
2024-05-09T11:04:46.148Z,99458.00
2024-05-09T11:07:20.176Z,99455.00
2024-05-09T11:09:51.492Z,99448.00
2024-05-09T11:12:24.718Z,99458.00
2024-05-09T11:14:55.937Z,99454.00
2024-05-09T11:17:27.117Z,99453.00
2024-05-09T11:19:58.277Z,99443.00
2024-05-09T11:22:34.934Z,99442.00
2024-05-09T11:25:06.835Z,99439.00
2024-05-09T11:27:40.879Z,99443.00
2024-05-09T11:30:26.881Z,99434.00
2024-05-09T11:33:03.189Z,99431.00
2024-05-09T11:35:34.515Z,99429.00
2024-05-09T11:38:05.769Z,99436.00
2024-05-09T11:40:38.662Z,99432.00
2024-05-09T11:43:09.749Z,99425.00
2024-05-09T11:45:40.939Z,99420.00
2024-05-09T11:48:12.153Z,99417.00
2024-05-09T11:50:43.315Z,99422.00
2024-05-09T11:53:14.387Z,99414.00
2024-05-09T11:55:45.414Z,99415.00
2024-05-09T11:58:18.220Z,99404.00
2024-05-09T12:00:50.296Z,99397.00
2024-05-09T12:03:21.562Z,99404.00
2024-05-09T12:05:52.715Z,99404.00
2024-05-09T12:08:24.048Z,99399.00
2024-05-09T12:10:55.303Z,99408.00
2024-05-09T12:13:26.558Z,99397.00
2024-05-09T12:15:58.862Z,99391.00
2024-05-09T12:18:30.249Z,99409.00
2024-05-09T12:21:02.025Z,99388.00
2024-05-09T12:23:33.075Z,99391.00
2024-05-09T12:26:04.292Z,99392.00
2024-05-09T12:28:35.302Z,99388.00
2024-05-09T12:31:06.426Z,99384.00
2024-05-09T12:33:37.539Z,99393.00
2024-05-09T12:36:08.609Z,99387.00
2024-05-09T12:38:41.052Z,99376.00
2024-05-09T12:41:12.224Z,99383.00
2024-05-09T12:43:43.238Z,99397.00
2024-05-09T12:46:14.504Z,99374.00
2024-05-09T12:48:45.788Z,99397.00
2024-05-09T12:51:16.991Z,99371.00
2024-05-09T12:53:48.068Z,99372.00
2024-05-09T12:56:19.118Z,99358.00
2024-05-09T12:58:51.749Z,99373.00
2024-05-09T13:01:22.875Z,99370.00
2024-05-09T13:03:54.198Z,99383.00
2024-05-09T13:06:25.433Z,99355.00
2024-05-09T13:08:56.855Z,99357.00
2024-05-09T13:11:27.956Z,99354.00
2024-05-09T13:13:59.082Z,99350.00
2024-05-09T13:16:30.189Z,99351.00
2024-05-09T13:19:01.352Z,99377.00
2024-05-09T13:21:32.421Z,99352.00
2024-05-09T13:24:03.683Z,99348.00
2024-05-09T13:26:34.748Z,99342.00
2024-05-09T13:29:05.923Z,99347.00
2024-05-09T13:31:36.961Z,99355.00
2024-05-09T13:34:08.194Z,99345.00
2024-05-09T13:36:39.790Z,99339.00
2024-05-09T13:39:10.908Z,99336.00
2024-05-09T13:41:41.956Z,99338.00
2024-05-09T13:44:13.085Z,99332.00
2024-05-09T13:46:44.221Z,99333.00
2024-05-09T13:49:17.137Z,99328.00
2024-05-09T13:51:48.653Z,99321.00
2024-05-09T13:54:22.356Z,99317.00
2024-05-09T13:56:53.833Z,99327.00
2024-05-09T13:59:24.921Z,99316.00
2024-05-09T14:01:56.035Z,99320.00
2024-05-09T14:04:27.328Z,99315.00
2024-05-09T14:06:58.532Z,99334.00
2024-05-09T14:09:29.695Z,99296.00
2024-05-09T14:12:00.733Z,99324.00
2024-05-09T14:14:31.796Z,99321.00
2024-05-09T14:17:02.944Z,99315.00
2024-05-09T14:19:33.998Z,99298.00
2024-05-09T14:22:06.787Z,99290.00
2024-05-09T14:24:37.943Z,99288.00
2024-05-09T14:27:09.046Z,99285.00
2024-05-09T14:29:40.164Z,99277.00
2024-05-09T14:32:11.164Z,99278.00
2024-05-09T14:34:42.256Z,99284.00
2024-05-09T14:37:13.608Z,99275.00
2024-05-09T14:39:44.641Z,99273.00
2024-05-09T14:42:15.679Z,99273.00
2024-05-09T14:44:46.764Z,99260.00
2024-05-09T14:47:18.477Z,99267.00
2024-05-09T14:49:49.721Z,99275.00
2024-05-09T14:52:20.846Z,99258.00
2024-05-09T14:55:00.013Z,99258.00
2024-05-09T14:57:31.995Z,99265.00
2024-05-09T15:00:05.147Z,99259.00
2024-05-09T15:02:38.715Z,99258.00
2024-05-09T15:05:11.220Z,99269.00
2024-05-09T15:07:45.571Z,99261.00
2024-05-09T15:10:23.715Z,99255.00
2024-05-09T15:13:02.613Z,99249.00
2024-05-09T15:15:33.900Z,99241.00
2024-05-09T15:18:06.392Z,99250.00
2024-05-09T15:20:38.243Z,99248.00
2024-05-09T15:23:09.455Z,99247.00
2024-05-09T15:25:40.794Z,99241.00
2024-05-09T15:28:12.001Z,99241.00
2024-05-09T15:30:46.295Z,99227.00
2024-05-09T15:33:18.305Z,99235.00
2024-05-09T15:35:51.529Z,99237.00
2024-05-09T15:38:22.663Z,99241.00
2024-05-09T15:40:54.062Z,99240.00
2024-05-09T15:43:25.448Z,99236.00
2024-05-09T15:45:56.704Z,99232.00
2024-05-09T15:48:27.858Z,99237.00
2024-05-09T15:50:59.057Z,99230.00
2024-05-09T15:53:30.134Z,99225.00
2024-05-09T15:56:01.441Z,99220.00
2024-05-09T15:58:32.488Z,99224.00
2024-05-09T16:01:03.706Z,99225.00
2024-05-09T16:03:34.912Z,99212.00
2024-05-09T16:06:06.715Z,99221.00
2024-05-09T16:08:37.954Z,99223.00
2024-05-09T16:11:09.236Z,99220.00
2024-05-09T16:13:40.396Z,99219.00
2024-05-09T16:16:11.623Z,99218.00
2024-05-09T16:18:42.766Z,99207.00
2024-05-09T16:21:13.913Z,99218.00
2024-05-09T16:23:44.979Z,99212.00
2024-05-09T16:26:16.060Z,99213.00
2024-05-09T16:28:48.420Z,99207.00
2024-05-09T16:31:19.465Z,99212.00
2024-05-09T16:33:50.690Z,99213.00
2024-05-09T16:36:21.918Z,99210.00
2024-05-09T16:38:52.898Z,99213.00
2024-05-09T16:41:24.178Z,99218.00
2024-05-09T16:43:55.279Z,99210.00
2024-05-09T16:46:28.224Z,99196.00
2024-05-09T16:48:59.405Z,99217.00
2024-05-09T16:51:36.138Z,99209.00
2024-05-09T16:54:07.183Z,99205.00
2024-05-09T16:56:38.275Z,99204.00
2024-05-09T16:59:09.335Z,99205.00
2024-05-09T17:01:40.423Z,99202.00
2024-05-09T17:04:11.812Z,99202.00
2024-05-09T17:06:43.297Z,99198.00
2024-05-09T17:09:19.704Z,99215.00
2024-05-09T17:11:51.332Z,99207.00
2024-05-09T17:14:22.401Z,99208.00
2024-05-09T17:16:54.840Z,99208.00
2024-05-09T17:19:26.026Z,99203.00
2024-05-09T17:21:57.112Z,99207.00
2024-05-09T17:24:28.200Z,99198.00
2024-05-09T17:27:00.540Z,99212.00
2024-05-09T17:29:31.699Z,99203.00
2024-05-09T17:32:02.760Z,99209.00
2024-05-09T17:34:34.050Z,99210.00
2024-05-09T17:37:05.513Z,99205.00
2024-05-09T17:39:36.580Z,99212.00
2024-05-09T17:42:07.702Z,99218.00
2024-05-09T17:44:38.766Z,99208.00
2024-05-09T17:47:10.442Z,99208.00
2024-05-09T17:49:42.865Z,99213.00
2024-05-09T17:52:16.871Z,99211.00
2024-05-09T17:54:49.769Z,99214.00
2024-05-09T17:57:21.173Z,99208.00
2024-05-09T17:59:53.970Z,99207.00
2024-05-09T18:02:25.232Z,99212.00
2024-05-09T18:04:56.473Z,99213.00
2024-05-09T18:07:27.809Z,99217.00
2024-05-09T18:09:58.875Z,99215.00
2024-05-09T18:12:30.051Z,99219.00
2024-05-09T18:15:03.716Z,99222.00
2024-05-09T18:17:35.097Z,99214.00
2024-05-09T18:20:09.120Z,99216.00
2024-05-09T18:22:42.339Z,99217.00
2024-05-09T18:25:13.637Z,99215.00
2024-05-09T18:27:44.951Z,99220.00
2024-05-09T18:30:24.144Z,99225.00
2024-05-09T18:33:02.859Z,99223.00
2024-05-09T18:35:34.132Z,99224.00
2024-05-09T18:38:05.769Z,99222.00
2024-05-09T18:40:38.499Z,99228.00
2024-05-09T18:43:10.780Z,99231.00
2024-05-09T18:45:41.877Z,99230.00
2024-05-09T18:48:13.862Z,99230.00
2024-05-09T18:50:45.195Z,99234.00
2024-05-09T18:53:16.441Z,99247.00
2024-05-09T18:55:47.459Z,99239.00
2024-05-09T18:58:18.678Z,99238.00
2024-05-09T19:00:52.060Z,99240.00
2024-05-09T19:03:25.286Z,99236.00
2024-05-09T19:05:56.591Z,99236.00
2024-05-09T19:08:28.649Z,99246.00
2024-05-09T19:10:59.812Z,99249.00
2024-05-09T19:13:30.859Z,99247.00
2024-05-09T19:16:02.132Z,99248.00
2024-05-09T19:18:33.282Z,99251.00
2024-05-09T19:21:04.750Z,99260.00
2024-05-09T19:23:38.379Z,99261.00
2024-05-09T19:26:12.162Z,99262.00
2024-05-09T19:28:43.201Z,99263.00
2024-05-09T19:31:14.329Z,99264.00
2024-05-09T19:33:45.612Z,99270.00
2024-05-09T19:36:19.376Z,99267.00
2024-05-09T19:38:51.628Z,99267.00
2024-05-09T19:41:22.695Z,99270.00
2024-05-09T19:43:53.742Z,99274.00
2024-05-09T19:46:25.034Z,99278.00
2024-05-09T19:48:56.666Z,99269.00
2024-05-09T19:51:27.867Z,99277.00
2024-05-09T19:53:58.876Z,99276.00
2024-05-09T19:56:30.892Z,99271.00
2024-05-09T19:59:03.387Z,99276.00
2024-05-09T20:01:34.630Z,99275.00
2024-05-09T20:04:06.957Z,99274.00
2024-05-09T20:06:38.362Z,99276.00
2024-05-09T20:09:09.446Z,99275.00
2024-05-09T20:11:40.564Z,99276.00
2024-05-09T20:14:12.499Z,99278.00
2024-05-09T20:16:44.966Z,99298.00
2024-05-09T20:19:16.151Z,99275.00
2024-05-09T20:21:47.225Z,99273.00
2024-05-09T20:24:18.361Z,99278.00
2024-05-09T20:26:49.413Z,99275.00
2024-05-09T20:29:21.469Z,99279.00
2024-05-09T20:31:52.505Z,99273.00
2024-05-09T20:34:23.619Z,99280.00
2024-05-09T20:36:54.794Z,99274.00
2024-05-09T20:39:26.948Z,99275.00
2024-05-09T20:41:58.112Z,99281.00
2024-05-09T20:44:29.128Z,99282.00
2024-05-09T20:47:00.150Z,99289.00
2024-05-09T20:49:31.357Z,99283.00
2024-05-09T20:52:02.763Z,99284.00
2024-05-09T20:54:33.969Z,99277.00
2024-05-09T20:57:06.488Z,99283.00
2024-05-09T20:59:39.282Z,99277.00
2024-05-09T21:02:10.580Z,99276.00
2024-05-09T21:04:41.864Z,99268.00
2024-05-09T21:07:13.049Z,99277.00
2024-05-09T21:09:44.155Z,99270.00
2024-05-09T21:12:15.232Z,99277.00
2024-05-09T21:14:46.261Z,99286.00
2024-05-09T21:17:17.358Z,99281.00
2024-05-09T21:19:49.381Z,99281.00
2024-05-09T21:22:20.636Z,99281.00
2024-05-09T21:24:51.740Z,99275.00
2024-05-09T21:27:22.775Z,99283.00
2024-05-09T21:29:53.825Z,99275.00
2024-05-09T21:32:24.939Z,99284.00
2024-05-09T21:34:56.161Z,99269.00
2024-05-09T21:37:27.275Z,99281.00
2024-05-09T21:39:58.407Z,99281.00
2024-05-09T21:42:29.647Z,99272.00
2024-05-09T21:45:00.666Z,99278.00
2024-05-09T21:47:31.773Z,99276.00
2024-05-09T21:50:03.726Z,99284.00
2024-05-09T21:52:35.975Z,99272.00
2024-05-09T21:55:07.220Z,99273.00
2024-05-09T21:57:38.474Z,99273.00
2024-05-09T22:00:25.175Z,99268.00
2024-05-09T22:03:04.250Z,99277.00
2024-05-09T22:05:35.673Z,99279.00
2024-05-09T22:08:07.724Z,99278.00
2024-05-09T22:10:38.937Z,99265.00
2024-05-09T22:13:11.248Z,99271.00
2024-05-09T22:15:42.758Z,99264.00
2024-05-09T22:18:13.926Z,99271.00
2024-05-09T22:20:46.355Z,99278.00
2024-05-09T22:23:17.747Z,99270.00
2024-05-09T22:25:48.815Z,99274.00
2024-05-09T22:28:20.147Z,99265.00
2024-05-09T22:30:53.110Z,99275.00
2024-05-09T22:33:24.189Z,99274.00
2024-05-09T22:35:55.314Z,99271.00
2024-05-09T22:38:26.318Z,99274.00
2024-05-09T22:40:57.367Z,99289.00
2024-05-09T22:43:28.458Z,99279.00
2024-05-09T22:45:59.559Z,99277.00
2024-05-09T22:48:30.832Z,99298.00
2024-05-09T22:51:01.937Z,99285.00
2024-05-09T22:53:32.958Z,99268.00
2024-05-09T22:56:04.303Z,99288.00
2024-05-09T22:58:35.413Z,99284.00
2024-05-09T23:01:06.529Z,99282.00
2024-05-09T23:03:39.314Z,99289.00
2024-05-09T23:06:10.473Z,99283.00
2024-05-09T23:08:41.636Z,99280.00
2024-05-09T23:11:12.831Z,99285.00
2024-05-09T23:13:43.926Z,99299.00
2024-05-09T23:16:15.132Z,99285.00
2024-05-09T23:18:46.243Z,99279.00
2024-05-09T23:21:17.732Z,99289.00
2024-05-09T23:23:48.807Z,99282.00
2024-05-09T23:26:19.847Z,99294.00
2024-05-09T23:28:50.883Z,99287.00
2024-05-09T23:31:21.958Z,99282.00
2024-05-09T23:33:55.139Z,99309.00
2024-05-09T23:36:29.210Z,99280.00
2024-05-09T23:39:00.452Z,99283.00
2024-05-09T23:41:31.599Z,99278.00
2024-05-09T23:44:02.598Z,99283.00
2024-05-09T23:46:33.688Z,99278.00
2024-05-09T23:49:05.289Z,99280.00
2024-05-09T23:51:36.448Z,99289.00
2024-05-09T23:54:08.630Z,99275.00
2024-05-09T23:56:39.651Z,99271.00
2024-05-09T23:59:10.779Z,99277.00
